Time;durP1;ratioP1;P1;durP2;ratioP2;P2;SDS_P1;SDS_P2;PMS_P1;PMS_P2;Temp;Humidity;BMP_temperature;BMP_pressure;BME280_temperature;BME280_humidity;BME280_pressure;Samples;Min_cycle;Max_cycle;Signal;HPM_P1;HPM_P2
2023/01/15 00:00:57;;;;;;;;;;;8.10;99.90;;;;;;4988500;28;19961;-77
2023/01/15 00:03:25;;;;;;;;;;;8.10;99.90;;;;;;4987076;28;20637;-76
2023/01/15 00:05:52;;;;;;;;;;;8.10;99.90;;;;;;4983912;28;19930;-77
2023/01/15 00:08:19;;;;;;;;;;;8.10;99.90;;;;;;4984242;28;19926;-77
2023/01/15 00:10:45;;;;;;;;;;;8.10;99.90;;;;;;4987399;28;20028;-77
2023/01/15 00:13:12;;;;;;;;;;;8.10;99.90;;;;;;4985210;28;19936;-77
2023/01/15 00:15:39;;;;;;;;;;;8.10;99.90;;;;;;4984904;28;20021;-77
2023/01/15 00:18:05;;;;;;;;;;;8.10;99.90;;;;;;4986583;28;19966;-77
2023/01/15 00:20:33;;;;;;;;;;;8.10;99.90;;;;;;4985059;28;19977;-77
2023/01/15 00:23:00;;;;;;;;;;;8.10;99.90;;;;;;4986697;28;20393;-77
2023/01/15 00:28:19;;;;;;;;;;;8.10;99.90;;;;;;4963440;28;20392;-78
2023/01/15 00:30:46;;;;;;;;;;;8.10;99.90;;;;;;4978528;28;19932;-77
2023/01/15 00:33:12;;;;;;;;;;;8.10;99.90;;;;;;4979119;28;20385;-78
2023/01/15 00:35:40;;;;;;;;;;;8.10;99.90;;;;;;4981369;28;19925;-77
2023/01/15 00:38:07;;;;;;;;;;;8.00;99.90;;;;;;4978768;28;19929;-77
2023/01/15 00:40:34;;;;;;;;;;;8.00;99.90;;;;;;4979360;28;19930;-77
2023/01/15 00:43:00;;;;;;;;;;;8.00;99.90;;;;;;4988391;28;19932;-76
2023/01/15 00:45:27;;;;;;;;;;;8.00;99.90;;;;;;4981152;28;19926;-76
2023/01/15 00:47:54;;;;;;;;;;;7.90;99.90;;;;;;4980883;28;19933;-77
2023/01/15 00:50:20;;;;;;;;;;;7.90;99.90;;;;;;4987269;28;19926;-77
2023/01/15 00:52:48;;;;;;;;;;;7.90;99.90;;;;;;4984504;28;19932;-77
2023/01/15 00:55:15;;;;;;;;;;;7.90;99.90;;;;;;4984880;28;19956;-78
2023/01/15 00:57:42;;;;;;;;;;;7.90;99.90;;;;;;4983521;28;19925;-78
2023/01/15 01:00:11;;;;;;;;;;;7.90;99.90;;;;;;4988280;28;19925;-77
2023/01/15 01:02:37;;;;;;;;;;;7.90;99.90;;;;;;4987113;28;19926;-78
2023/01/15 01:05:04;;;;;;;;;;;7.90;99.90;;;;;;4988060;28;20295;-78
2023/01/15 01:07:31;;;;;;;;;;;7.90;99.90;;;;;;4986336;28;19937;-77
2023/01/15 01:09:59;;;;;;;;;;;7.90;99.90;;;;;;4990615;28;19934;-78
2023/01/15 01:12:25;;;;;;;;;;;7.90;99.90;;;;;;4985740;28;19925;-78
2023/01/15 01:14:52;;;;;;;;;;;7.90;99.90;;;;;;4992032;28;19936;-78
2023/01/15 01:17:19;;;;;;;;;;;7.90;99.90;;;;;;4988410;28;20008;-77
2023/01/15 01:19:45;;;;;;;;;;;7.90;99.90;;;;;;4990355;28;19926;-76
2023/01/15 01:22:12;;;;;;;;;;;7.90;99.90;;;;;;4985605;28;19941;-78
2023/01/15 01:24:39;;;;;;;;;;;7.90;99.90;;;;;;4989230;28;19926;-77
2023/01/15 01:27:07;;;;;;;;;;;7.90;99.90;;;;;;4987591;28;20285;-77
2023/01/15 01:29:33;;;;;;;;;;;7.90;99.90;;;;;;4989762;28;20299;-77
2023/01/15 01:32:00;;;;;;;;;;;7.80;99.90;;;;;;4987052;28;20042;-77
2023/01/15 01:34:27;;;;;;;;;;;7.80;99.90;;;;;;4988657;28;19929;-78
2023/01/15 01:36:53;;;;;;;;;;;7.80;99.90;;;;;;4988083;28;20265;-77
2023/01/15 01:39:20;;;;;;;;;;;7.80;99.90;;;;;;4989987;28;19926;-77
2023/01/15 01:41:47;;;;;;;;;;;7.80;99.90;;;;;;4988478;28;20013;-77
2023/01/15 01:44:32;;;;;;;;;;;7.80;99.90;;;;;;4988657;28;19927;-77
2023/01/15 01:47:01;;;;;;;;;;;7.80;99.90;;;;;;4988514;28;19925;-78
2023/01/15 01:49:28;;;;;;;;;;;7.70;99.90;;;;;;4989864;28;19926;-78
2023/01/15 01:51:56;;;;;;;;;;;7.80;99.90;;;;;;4988717;28;19926;-78
2023/01/15 01:54:25;;;;;;;;;;;7.80;99.90;;;;;;4989833;28;20402;-78
2023/01/15 01:56:52;;;;;;;;;;;7.70;99.90;;;;;;4987996;28;20021;-77
2023/01/15 01:59:20;;;;;;;;;;;7.70;99.90;;;;;;4990485;28;19928;-77
2023/01/15 02:01:47;;;;;;;;;;;7.70;99.90;;;;;;4988399;28;20309;-77
2023/01/15 02:04:16;;;;;;;;;;;7.70;99.90;;;;;;4989983;28;20009;-77
2023/01/15 02:06:43;;;;;;;;;;;7.70;99.90;;;;;;4987500;28;19932;-77
2023/01/15 02:09:10;;;;;;;;;;;7.60;99.90;;;;;;4989950;28;19926;-77
2023/01/15 02:11:37;;;;;;;;;;;7.60;99.90;;;;;;4987843;28;19933;-77
2023/01/15 02:14:05;;;;;;;;;;;7.60;99.90;;;;;;4990597;28;20012;-77
2023/01/15 02:16:36;;;;;;;;;;;7.60;99.90;;;;;;4987414;28;20363;-77
2023/01/15 02:19:10;;;;;;;;;;;7.50;99.90;;;;;;4986740;28;19934;-78
2023/01/15 02:21:44;;;;;;;;;;;7.50;99.90;;;;;;4988066;28;19934;-77
2023/01/15 02:24:14;;;;;;;;;;;7.50;99.90;;;;;;4987635;28;19926;-77
2023/01/15 02:26:50;;;;;;;;;;;7.40;99.90;;;;;;4988465;28;20403;-78
2023/01/15 02:29:19;;;;;;;;;;;7.30;99.90;;;;;;4980546;28;20028;-78
2023/01/15 02:31:49;;;;;;;;;;;7.30;99.90;;;;;;4987818;28;20292;-77
2023/01/15 02:34:19;;;;;;;;;;;7.30;99.90;;;;;;4991174;28;20013;-78
2023/01/15 02:36:47;;;;;;;;;;;7.30;99.90;;;;;;4988062;28;19938;-77
2023/01/15 02:39:15;;;;;;;;;;;7.30;99.90;;;;;;4990335;28;20307;-77
2023/01/15 02:41:44;;;;;;;;;;;7.30;99.90;;;;;;4989137;28;19936;-77
2023/01/15 02:44:13;;;;;;;;;;;7.30;99.90;;;;;;4988013;28;20406;-77
2023/01/15 02:46:41;;;;;;;;;;;7.30;99.90;;;;;;4998767;28;19930;-77
2023/01/15 02:49:09;;;;;;;;;;;7.30;99.90;;;;;;4992486;28;19926;-77
2023/01/15 02:51:38;;;;;;;;;;;7.30;99.90;;;;;;4987151;28;20399;-78
2023/01/15 02:54:09;;;;;;;;;;;7.20;99.90;;;;;;4989170;28;20384;-78
2023/01/15 02:56:37;;;;;;;;;;;7.20;99.90;;;;;;4987962;28;20285;-78
2023/01/15 02:59:05;;;;;;;;;;;7.20;99.90;;;;;;4988844;28;20054;-78
2023/01/15 03:01:36;;;;;;;;;;;7.20;99.90;;;;;;4987823;28;20396;-78
2023/01/15 03:04:08;;;;;;;;;;;7.10;99.90;;;;;;4990492;28;20313;-78
2023/01/15 03:06:38;;;;;;;;;;;7.20;99.90;;;;;;4983332;28;19962;-77
2023/01/15 03:09:05;;;;;;;;;;;7.10;99.90;;;;;;4991685;28;19926;-78
2023/01/15 03:11:33;;;;;;;;;;;7.10;99.90;;;;;;4987871;28;20389;-77
2023/01/15 03:14:02;;;;;;;;;;;7.10;99.90;;;;;;4984278;28;19991;-77
2023/01/15 03:16:36;;;;;;;;;;;7.10;99.90;;;;;;4984992;28;19956;-78
2023/01/15 03:19:11;;;;;;;;;;;7.10;99.90;;;;;;4988325;28;19938;-78
2023/01/15 03:21:44;;;;;;;;;;;7.10;99.90;;;;;;4983529;28;20364;-77
2023/01/15 03:24:11;;;;;;;;;;;7.10;99.90;;;;;;4987420;28;20403;-77
2023/01/15 03:26:38;;;;;;;;;;;7.00;99.90;;;;;;4987190;28;19948;-78
2023/01/15 03:29:05;;;;;;;;;;;7.00;99.90;;;;;;4988710;28;20281;-77
2023/01/15 03:31:33;;;;;;;;;;;7.00;99.90;;;;;;4987527;28;20432;-78
2023/01/15 03:33:59;;;;;;;;;;;7.00;99.90;;;;;;4987240;28;19932;-78
2023/01/15 03:36:27;;;;;;;;;;;7.00;99.90;;;;;;4985943;28;19934;-78
2023/01/15 03:38:55;;;;;;;;;;;7.00;99.90;;;;;;4986679;28;19926;-77
2023/01/15 03:41:25;;;;;;;;;;;6.90;99.90;;;;;;4985848;28;19934;-78
2023/01/15 03:43:58;;;;;;;;;;;7.00;99.90;;;;;;4987993;28;19937;-78
2023/01/15 03:46:39;;;;;;;;;;;7.00;99.90;;;;;;4985331;28;19926;-78
2023/01/15 03:49:10;;;;;;;;;;;6.90;99.90;;;;;;4986914;28;20033;-77
2023/01/15 03:51:40;;;;;;;;;;;7.00;99.90;;;;;;4985482;28;20399;-78
2023/01/15 03:54:09;;;;;;;;;;;6.90;99.90;;;;;;4987736;28;19925;-78
2023/01/15 03:56:41;;;;;;;;;;;6.90;99.90;;;;;;4985379;28;20300;-78
2023/01/15 03:59:11;;;;;;;;;;;6.90;99.90;;;;;;4987609;28;20033;-78
2023/01/15 04:01:39;;;;;;;;;;;6.90;99.90;;;;;;4987092;28;19932;-79
2023/01/15 04:04:06;;;;;;;;;;;6.90;99.90;;;;;;4986784;28;19956;-77
2023/01/15 04:06:34;;;;;;;;;;;6.80;99.90;;;;;;4985732;28;20033;-77
2023/01/15 04:09:03;;;;;;;;;;;6.80;99.90;;;;;;4985547;28;19936;-77
2023/01/15 04:11:30;;;;;;;;;;;6.80;99.90;;;;;;4985340;28;19940;-77
2023/01/15 04:13:57;;;;;;;;;;;6.70;99.90;;;;;;4985350;28;19929;-77
2023/01/15 04:16:25;;;;;;;;;;;6.70;99.90;;;;;;4986688;28;20427;-77
2023/01/15 04:18:51;;;;;;;;;;;6.70;99.90;;;;;;4985901;28;19930;-78
2023/01/15 04:21:18;;;;;;;;;;;6.70;99.90;;;;;;4986307;28;19926;-77
2023/01/15 04:23:45;;;;;;;;;;;6.70;99.90;;;;;;4986034;28;20285;-77
2023/01/15 04:26:13;;;;;;;;;;;6.60;99.90;;;;;;4988298;28;20412;-78
2023/01/15 04:28:40;;;;;;;;;;;6.70;99.90;;;;;;4986161;28;22476;-77
2023/01/15 04:31:07;;;;;;;;;;;6.60;99.90;;;;;;4986003;28;20016;-77
2023/01/15 04:33:33;;;;;;;;;;;6.60;99.90;;;;;;4985988;28;19933;-77
2023/01/15 04:36:00;;;;;;;;;;;6.60;99.90;;;;;;4987010;28;19926;-77
2023/01/15 04:38:27;;;;;;;;;;;6.60;99.90;;;;;;4986667;28;20291;-77
2023/01/15 04:46:24;;;;;;;;;;;6.60;99.90;;;;;;4975474;28;19932;-77
2023/01/15 04:48:51;;;;;;;;;;;6.60;99.90;;;;;;4989667;28;19976;-77
2023/01/15 04:51:18;;;;;;;;;;;6.60;99.90;;;;;;4989717;28;19926;-77
2023/01/15 04:53:44;;;;;;;;;;;6.60;99.90;;;;;;4991894;28;19934;-77
2023/01/15 04:56:11;;;;;;;;;;;6.60;99.90;;;;;;4980567;28;19932;-77
2023/01/15 04:58:39;;;;;;;;;;;6.60;99.90;;;;;;4990248;28;19926;-77
2023/01/15 05:01:10;;;;;;;;;;;6.60;99.90;;;;;;4989352;28;19926;-77
2023/01/15 05:03:36;;;;;;;;;;;6.60;99.90;;;;;;4989470;28;20308;-77
2023/01/15 05:06:03;;;;;;;;;;;6.50;99.90;;;;;;4989453;28;19929;-77
2023/01/15 05:08:30;;;;;;;;;;;6.60;99.90;;;;;;4988223;28;19932;-77
2023/01/15 05:11:00;;;;;;;;;;;6.60;99.90;;;;;;4990880;28;20005;-77
2023/01/15 05:13:27;;;;;;;;;;;6.60;99.90;;;;;;4990330;28;19994;-77
2023/01/15 05:15:55;;;;;;;;;;;6.60;99.90;;;;;;4989363;28;19962;-77
2023/01/15 05:18:22;;;;;;;;;;;6.50;99.90;;;;;;4990414;28;20002;-78
2023/01/15 05:20:50;;;;;;;;;;;6.50;99.90;;;;;;4987719;28;19925;-77
2023/01/15 05:23:16;;;;;;;;;;;6.50;99.90;;;;;;4986823;28;20411;-77
2023/01/15 05:25:43;;;;;;;;;;;6.50;99.90;;;;;;4989181;28;20230;-77
2023/01/15 05:28:10;;;;;;;;;;;6.50;99.90;;;;;;4989697;28;20444;-78
2023/01/15 05:30:36;;;;;;;;;;;6.50;99.90;;;;;;4990625;28;20368;-77
2023/01/15 05:33:04;;;;;;;;;;;6.50;99.90;;;;;;4987454;28;19989;-77
2023/01/15 05:35:31;;;;;;;;;;;6.40;99.90;;;;;;4988506;28;19926;-77
2023/01/15 05:37:58;;;;;;;;;;;6.40;99.90;;;;;;4988812;28;19926;-78
2023/01/15 05:40:24;;;;;;;;;;;6.40;99.90;;;;;;4985621;28;20028;-76
2023/01/15 05:42:51;;;;;;;;;;;6.40;99.90;;;;;;4985484;28;19926;-77
2023/01/15 05:45:18;;;;;;;;;;;6.40;99.90;;;;;;4989800;28;19992;-77
2023/01/15 05:47:44;;;;;;;;;;;6.40;99.90;;;;;;4989287;28;20020;-77
2023/01/15 05:50:12;;;;;;;;;;;6.40;99.90;;;;;;4990917;28;20020;-77
2023/01/15 05:52:39;;;;;;;;;;;6.40;99.90;;;;;;4987842;28;19926;-77
2023/01/15 05:55:06;;;;;;;;;;;6.40;99.90;;;;;;4987266;28;20020;-77
2023/01/15 05:57:32;;;;;;;;;;;6.40;99.90;;;;;;4988665;28;19925;-77
2023/01/15 05:59:59;;;;;;;;;;;6.40;99.90;;;;;;4990909;28;19965;-77
2023/01/15 06:02:26;;;;;;;;;;;6.40;99.90;;;;;;4987529;28;20020;-76
2023/01/15 06:04:52;;;;;;;;;;;6.30;99.90;;;;;;4988583;28;20053;-77
2023/01/15 06:07:20;;;;;;;;;;;6.30;99.90;;;;;;4989252;28;20021;-77
2023/01/15 06:09:47;;;;;;;;;;;6.20;99.90;;;;;;4990291;28;20020;-77
2023/01/15 06:12:14;;;;;;;;;;;5.90;99.90;;;;;;4987301;28;20024;-77
2023/01/15 06:14:41;;;;;;;;;;;5.80;99.90;;;;;;4988168;28;20409;-77
2023/01/15 06:17:07;;;;;;;;;;;5.60;99.90;;;;;;4989607;28;20020;-77
2023/01/15 06:19:34;;;;;;;;;;;5.50;99.90;;;;;;4987593;28;20075;-77
2023/01/15 06:22:02;;;;;;;;;;;5.40;99.90;;;;;;4987158;28;19925;-78
2023/01/15 06:24:30;;;;;;;;;;;5.30;99.90;;;;;;4988301;28;20479;-77
2023/01/15 06:26:57;;;;;;;;;;;5.30;99.90;;;;;;4986595;28;20040;-77
2023/01/15 06:29:23;;;;;;;;;;;5.20;99.90;;;;;;4980578;28;19987;-77
2023/01/15 06:31:50;;;;;;;;;;;5.20;99.90;;;;;;4987748;28;20021;-77
2023/01/15 06:34:17;;;;;;;;;;;5.20;99.90;;;;;;4987699;28;20028;-76
2023/01/15 06:36:43;;;;;;;;;;;5.20;99.90;;;;;;4987776;28;19926;-76
2023/01/15 06:39:10;;;;;;;;;;;5.20;99.90;;;;;;4987610;28;20618;-77
2023/01/15 06:47:21;;;;;;;;;;;5.20;99.90;;;;;;4991420;28;19933;-77
2023/01/15 06:49:48;;;;;;;;;;;5.20;99.90;;;;;;4990152;28;19924;-76
2023/01/15 06:52:15;;;;;;;;;;;5.20;99.90;;;;;;4985423;28;20311;-77
2023/01/15 06:54:42;;;;;;;;;;;5.20;99.90;;;;;;4985817;28;19956;-77
2023/01/15 06:57:10;;;;;;;;;;;5.20;99.90;;;;;;4986435;28;20024;-77
2023/01/15 06:59:36;;;;;;;;;;;5.20;99.90;;;;;;4987856;28;20018;-77
2023/01/15 07:02:03;;;;;;;;;;;5.20;99.90;;;;;;4972580;28;19929;-77
2023/01/15 07:04:30;;;;;;;;;;;5.20;99.90;;;;;;4973436;28;20013;-77
2023/01/15 07:06:57;;;;;;;;;;;5.20;99.90;;;;;;4976293;28;19933;-78
2023/01/15 07:09:24;;;;;;;;;;;5.20;99.90;;;;;;4989124;28;19957;-77
2023/01/15 07:11:50;;;;;;;;;;;5.20;99.90;;;;;;4984393;28;19926;-76
2023/01/15 07:14:19;;;;;;;;;;;5.10;99.90;;;;;;4987610;28;19929;-78
2023/01/15 07:16:46;;;;;;;;;;;5.10;99.90;;;;;;4981291;28;19934;-76
2023/01/15 07:19:13;;;;;;;;;;;5.10;99.90;;;;;;4986608;28;19926;-77
2023/01/15 07:21:40;;;;;;;;;;;5.10;99.90;;;;;;4984432;28;20020;-74
2023/01/15 07:24:07;;;;;;;;;;;5.10;99.90;;;;;;4988584;28;19951;-75
2023/01/15 07:26:33;;;;;;;;;;;5.10;99.90;;;;;;4985622;28;19930;-75
2023/01/15 07:29:00;;;;;;;;;;;5.10;99.90;;;;;;4989193;28;22040;-75
2023/01/15 07:31:28;;;;;;;;;;;5.10;99.90;;;;;;4983838;28;19934;-75
2023/01/15 07:33:55;;;;;;;;;;;5.10;99.90;;;;;;4985124;28;20003;-75
2023/01/15 07:36:22;;;;;;;;;;;5.10;99.90;;;;;;4985420;28;20021;-75
2023/01/15 07:38:49;;;;;;;;;;;5.10;99.90;;;;;;4985737;28;20399;-75
2023/01/15 07:49:45;;;;;;;;;;;5.10;99.90;;;;;;4989353;28;19981;-74
2023/01/15 07:52:12;;;;;;;;;;;5.10;99.90;;;;;;4985210;28;19925;-74
2023/01/15 07:54:38;;;;;;;;;;;5.10;99.90;;;;;;5004788;28;20020;-74
2023/01/15 07:57:06;;;;;;;;;;;5.10;99.90;;;;;;4975622;28;19930;-75
2023/01/15 07:59:32;;;;;;;;;;;5.20;99.90;;;;;;4986918;28;19926;-75
2023/01/15 08:02:00;;;;;;;;;;;5.20;99.90;;;;;;4984806;28;20028;-75
2023/01/15 08:04:27;;;;;;;;;;;5.10;99.90;;;;;;4985592;28;19930;-75
2023/01/15 08:06:54;;;;;;;;;;;5.10;99.90;;;;;;4981781;28;19930;-75
2023/01/15 08:09:20;;;;;;;;;;;5.20;99.90;;;;;;4988329;28;19958;-75
2023/01/15 08:17:17;;;;;;;;;;;5.20;99.90;;;;;;4986943;28;20170;-74
2023/01/15 08:19:43;;;;;;;;;;;5.20;99.90;;;;;;4990509;28;20393;-75
2023/01/15 08:22:10;;;;;;;;;;;5.20;99.90;;;;;;4988193;28;19962;-74
2023/01/15 08:24:37;;;;;;;;;;;5.20;99.90;;;;;;5001060;28;19926;-74
2023/01/15 08:27:04;;;;;;;;;;;5.30;99.90;;;;;;4986779;28;19934;-75
2023/01/15 08:29:31;;;;;;;;;;;5.30;99.90;;;;;;4989934;28;20373;-76
2023/01/15 08:31:58;;;;;;;;;;;5.30;99.90;;;;;;4985946;28;19926;-75
2023/01/15 08:34:26;;;;;;;;;;;5.40;99.90;;;;;;4989182;28;20369;-75
2023/01/15 08:36:58;;;;;;;;;;;5.40;99.90;;;;;;4989284;28;19933;-75
2023/01/15 08:39:26;;;;;;;;;;;5.40;99.90;;;;;;4987238;28;20304;-75
2023/01/15 08:41:52;;;;;;;;;;;5.40;99.90;;;;;;4987403;28;20375;-75
2023/01/15 08:44:20;;;;;;;;;;;5.50;99.90;;;;;;4995042;28;20292;-75
2023/01/15 08:46:47;;;;;;;;;;;5.80;99.90;;;;;;5005406;28;19925;-72
2023/01/15 08:49:14;;;;;;;;;;;6.20;99.90;;;;;;4991145;28;19933;-75
2023/01/15 08:51:43;;;;;;;;;;;6.60;99.90;;;;;;4990250;28;19952;-75
2023/01/15 08:54:10;;;;;;;;;;;6.90;99.90;;;;;;4989659;28;20292;-75
2023/01/15 08:56:37;;;;;;;;;;;7.70;99.90;;;;;;4989381;28;20016;-75
2023/01/15 08:59:05;;;;;;;;;;;7.00;99.90;;;;;;4986142;28;19926;-75
2023/01/15 09:01:31;;;;;;;;;;;7.10;99.90;;;;;;4989651;28;19940;-75
2023/01/15 09:03:58;;;;;;;;;;;7.20;99.90;;;;;;4988566;28;20021;-75
2023/01/15 09:06:25;;;;;;;;;;;7.50;99.90;;;;;;4988155;28;19926;-76
2023/01/15 09:08:53;;;;;;;;;;;7.80;99.90;;;;;;4990060;28;20408;-75
2023/01/15 09:11:21;;;;;;;;;;;8.00;99.90;;;;;;4988728;28;20377;-76
2023/01/15 09:13:50;;;;;;;;;;;7.80;99.90;;;;;;4988934;28;19932;-76
2023/01/15 09:16:17;;;;;;;;;;;7.80;99.90;;;;;;4987861;28;19929;-75
2023/01/15 09:18:44;;;;;;;;;;;7.70;99.90;;;;;;4989259;28;20016;-74
2023/01/15 09:21:11;;;;;;;;;;;7.70;99.90;;;;;;4989518;28;19936;-75
2023/01/15 09:23:37;;;;;;;;;;;7.90;99.90;;;;;;4989972;28;20288;-74
2023/01/15 09:26:07;;;;;;;;;;;7.80;99.90;;;;;;4990078;28;19979;-75
2023/01/15 09:28:34;;;;;;;;;;;7.70;99.90;;;;;;4988556;28;19932;-75
2023/01/15 09:31:01;;;;;;;;;;;7.20;99.90;;;;;;4990434;28;20009;-75
2023/01/15 09:33:27;;;;;;;;;;;7.30;99.90;;;;;;4989833;28;20021;-75
2023/01/15 09:35:54;;;;;;;;;;;7.30;99.90;;;;;;4987109;28;19929;-75
2023/01/15 09:38:21;;;;;;;;;;;6.90;99.90;;;;;;4987710;28;19934;-74
2023/01/15 09:40:49;;;;;;;;;;;6.70;99.90;;;;;;4990584;28;19958;-74
2023/01/15 09:43:23;;;;;;;;;;;6.50;99.90;;;;;;4989530;28;20523;-74
2023/01/15 09:45:53;;;;;;;;;;;6.50;99.90;;;;;;4990185;28;20405;-75
2023/01/15 09:48:24;;;;;;;;;;;6.50;99.90;;;;;;4989910;28;19926;-73
2023/01/15 09:50:58;;;;;;;;;;;6.40;99.90;;;;;;4991517;28;20115;-73
2023/01/15 09:53:32;;;;;;;;;;;6.40;99.90;;;;;;4997910;28;20005;-75
2023/01/15 09:56:00;;;;;;;;;;;6.30;99.90;;;;;;4990258;28;20343;-76
2023/01/15 09:58:31;;;;;;;;;;;6.20;99.90;;;;;;4982866;28;19957;-74
2023/01/15 10:00:58;;;;;;;;;;;6.10;99.90;;;;;;4989820;28;20423;-75
2023/01/15 10:03:30;;;;;;;;;;;6.00;99.90;;;;;;4989047;28;19926;-74
2023/01/15 10:06:02;;;;;;;;;;;6.00;99.90;;;;;;4990640;28;19926;-75
2023/01/15 10:08:30;;;;;;;;;;;6.00;99.90;;;;;;4988818;28;19926;-75
2023/01/15 10:10:59;;;;;;;;;;;6.10;99.90;;;;;;4989093;28;20339;-75
2023/01/15 10:13:30;;;;;;;;;;;6.10;99.90;;;;;;4988390;28;19933;-75
2023/01/15 10:15:58;;;;;;;;;;;6.10;99.90;;;;;;4989638;28;19932;-75
2023/01/15 10:18:25;;;;;;;;;;;6.10;99.90;;;;;;4988810;28;20353;-74
2023/01/15 10:20:55;;;;;;;;;;;6.10;99.90;;;;;;4990125;28;19926;-75
2023/01/15 10:23:39;;;;;;;;;;;6.00;99.90;;;;;;4988557;28;20352;-74
2023/01/15 10:26:17;;;;;;;;;;;5.90;99.90;;;;;;4990472;28;19926;-74
2023/01/15 10:28:52;;;;;;;;;;;5.90;99.90;;;;;;4990280;28;19932;-75
2023/01/15 10:31:20;;;;;;;;;;;5.90;99.90;;;;;;4988680;28;19926;-75
2023/01/15 10:33:54;;;;;;;;;;;6.00;99.90;;;;;;4982068;28;20125;-76
2023/01/15 10:36:24;;;;;;;;;;;6.10;99.90;;;;;;4988025;28;20028;-73
2023/01/15 10:38:57;;;;;;;;;;;6.20;99.90;;;;;;4984870;28;20296;-74
2023/01/15 10:41:44;;;;;;;;;;;6.20;99.90;;;;;;4986946;28;19991;-74
2023/01/15 10:44:16;;;;;;;;;;;6.20;99.90;;;;;;4991353;28;21236;-75
2023/01/15 10:46:45;;;;;;;;;;;6.30;99.90;;;;;;4988590;28;19932;-74
2023/01/15 10:49:13;;;;;;;;;;;6.30;99.90;;;;;;4989849;28;20468;-75
2023/01/15 10:51:43;;;;;;;;;;;6.40;99.90;;;;;;4989471;28;19949;-75
2023/01/15 10:54:14;;;;;;;;;;;6.50;99.90;;;;;;4989077;28;20411;-75
2023/01/15 10:56:43;;;;;;;;;;;6.60;99.90;;;;;;4988217;28;19969;-74
2023/01/15 10:59:13;;;;;;;;;;;6.50;99.90;;;;;;4987000;28;20017;-73
2023/01/15 11:01:41;;;;;;;;;;;6.40;99.90;;;;;;4988550;28;20020;-75
2023/01/15 11:04:08;;;;;;;;;;;6.30;99.90;;;;;;4980930;28;20016;-75
2023/01/15 11:06:35;;;;;;;;;;;6.40;99.90;;;;;;4985830;28;20407;-74
2023/01/15 11:09:02;;;;;;;;;;;6.40;99.90;;;;;;4988820;28;20030;-75
2023/01/15 11:19:46;;;;;;;;;;;7.10;99.90;;;;;;4972039;28;20076;-74
2023/01/15 11:22:14;;;;;;;;;;;7.20;99.90;;;;;;4983853;28;19944;-75
2023/01/15 11:24:48;;;;;;;;;;;7.10;99.90;;;;;;4983891;28;20413;-74
2023/01/15 11:27:16;;;;;;;;;;;7.10;99.90;;;;;;4983497;28;19926;-75
2023/01/15 11:29:43;;;;;;;;;;;7.00;99.90;;;;;;4987585;28;19930;-78
2023/01/15 11:32:20;;;;;;;;;;;7.20;99.90;;;;;;4989057;28;20261;-78
2023/01/15 11:34:52;;;;;;;;;;;7.10;99.90;;;;;;4988224;28;20288;-78
2023/01/15 11:37:19;;;;;;;;;;;7.10;99.90;;;;;;4975026;28;20145;-78
2023/01/15 11:39:52;;;;;;;;;;;7.10;99.90;;;;;;4990316;28;20008;-77
2023/01/15 11:50:49;;;;;;;;;;;7.20;99.90;;;;;;4991494;28;20025;-77
2023/01/15 11:53:17;;;;;;;;;;;7.20;99.90;;;;;;4989794;28;20346;-77
2023/01/15 11:55:51;;;;;;;;;;;7.20;99.90;;;;;;5005434;28;19937;-77
2023/01/15 11:58:17;;;;;;;;;;;7.30;99.90;;;;;;4980839;28;19926;-77
2023/01/15 12:00:49;;;;;;;;;;;7.20;99.90;;;;;;4986605;28;19933;-76
2023/01/15 12:03:18;;;;;;;;;;;7.20;99.90;;;;;;4982033;28;20012;-75
2023/01/15 12:05:46;;;;;;;;;;;7.20;99.90;;;;;;4988540;28;19926;-76
2023/01/15 12:08:16;;;;;;;;;;;7.20;99.90;;;;;;4986319;28;19933;-76
2023/01/15 12:11:04;;;;;;;;;;;7.30;99.90;;;;;;4982077;28;20012;-75
2023/01/15 12:13:35;;;;;;;;;;;7.30;99.90;;;;;;4981235;28;19965;-75
2023/01/15 12:16:07;;;;;;;;;;;7.30;99.90;;;;;;4987039;28;19929;-77
2023/01/15 12:18:56;;;;;;;;;;;7.40;99.90;;;;;;4987598;28;20278;-76
2023/01/15 12:21:45;;;;;;;;;;;7.40;99.90;;;;;;4985548;28;19930;-77
2023/01/15 12:24:20;;;;;;;;;;;7.30;99.90;;;;;;4979153;28;20004;-76
2023/01/15 12:26:53;;;;;;;;;;;7.30;99.90;;;;;;4979869;28;20389;-75
2023/01/15 12:29:22;;;;;;;;;;;7.30;99.90;;;;;;4985877;28;20387;-76
2023/01/15 12:31:51;;;;;;;;;;;7.30;99.90;;;;;;4986841;28;19926;-78
2023/01/15 12:34:21;;;;;;;;;;;7.30;99.90;;;;;;4987475;28;19926;-77
2023/01/15 12:36:50;;;;;;;;;;;7.30;99.90;;;;;;4983253;28;19983;-76
2023/01/15 12:39:19;;;;;;;;;;;7.40;99.90;;;;;;4972400;28;19936;-76
2023/01/15 12:47:20;;;;;;;;;;;7.20;99.90;;;;;;4984125;28;20403;-76
2023/01/15 12:49:51;;;;;;;;;;;7.20;99.90;;;;;;4985577;28;20016;-78
2023/01/15 12:52:23;;;;;;;;;;;7.40;99.90;;;;;;4981672;28;19933;-75
2023/01/15 12:54:52;;;;;;;;;;;7.50;99.90;;;;;;4983289;28;19940;-80
2023/01/15 12:57:24;;;;;;;;;;;7.50;99.90;;;;;;4984311;28;19976;-80
2023/01/15 12:59:54;;;;;;;;;;;7.50;99.90;;;;;;4987356;28;20627;-78
2023/01/15 13:02:22;;;;;;;;;;;7.60;99.90;;;;;;4988201;28;20025;-80
2023/01/15 13:04:52;;;;;;;;;;;7.60;99.90;;;;;;4990283;28;19932;-77
2023/01/15 13:07:21;;;;;;;;;;;7.60;99.90;;;;;;4989067;28;19930;-77
2023/01/15 13:09:52;;;;;;;;;;;7.60;99.90;;;;;;4990390;28;19956;-78
2023/01/15 13:12:19;;;;;;;;;;;7.60;99.90;;;;;;4994320;28;19930;-78
2023/01/15 13:14:46;;;;;;;;;;;7.60;99.90;;;;;;4992043;28;19925;-75
2023/01/15 13:17:18;;;;;;;;;;;7.50;99.90;;;;;;4986350;28;19930;-75
2023/01/15 13:19:48;;;;;;;;;;;7.50;99.90;;;;;;4987870;28;19958;-76
2023/01/15 13:22:18;;;;;;;;;;;7.50;99.90;;;;;;4989888;28;19926;-74
2023/01/15 13:24:53;;;;;;;;;;;7.50;99.90;;;;;;4984463;28;20027;-76
2023/01/15 13:27:25;;;;;;;;;;;7.50;99.90;;;;;;4986159;28;19933;-75
2023/01/15 13:30:01;;;;;;;;;;;7.50;99.90;;;;;;5002005;28;20377;-74
2023/01/15 13:32:29;;;;;;;;;;;7.40;99.90;;;;;;4984158;28;20370;-75
2023/01/15 13:34:58;;;;;;;;;;;7.40;99.90;;;;;;4994653;28;19932;-76
2023/01/15 13:37:27;;;;;;;;;;;7.30;99.90;;;;;;4987981;28;19926;-76
2023/01/15 13:39:56;;;;;;;;;;;7.30;99.90;;;;;;4986787;28;20013;-80
2023/01/15 13:42:33;;;;;;;;;;;7.20;99.90;;;;;;4988752;28;20021;-80
2023/01/15 13:45:03;;;;;;;;;;;7.10;99.90;;;;;;4989089;28;21034;-77
2023/01/15 13:47:31;;;;;;;;;;;7.00;99.90;;;;;;4993634;28;19969;-75
2023/01/15 13:50:00;;;;;;;;;;;6.90;99.90;;;;;;4987447;28;20034;-79
2023/01/15 13:52:29;;;;;;;;;;;6.90;99.90;;;;;;4987123;28;19961;-77
2023/01/15 13:54:58;;;;;;;;;;;6.90;99.90;;;;;;4992305;28;20265;-76
2023/01/15 13:57:31;;;;;;;;;;;6.80;99.90;;;;;;4982691;28;19933;-77
2023/01/15 13:59:58;;;;;;;;;;;6.80;99.90;;;;;;4988245;28;19930;-76
2023/01/15 14:02:26;;;;;;;;;;;6.70;99.90;;;;;;4988994;28;19926;-77
2023/01/15 14:04:53;;;;;;;;;;;6.70;99.90;;;;;;4983607;28;20451;-76
2023/01/15 14:07:22;;;;;;;;;;;6.60;99.90;;;;;;4988369;28;20315;-77
2023/01/15 14:09:50;;;;;;;;;;;6.50;99.90;;;;;;4989189;28;19926;-77
2023/01/15 14:12:23;;;;;;;;;;;6.50;99.90;;;;;;4987902;28;19926;-76
2023/01/15 14:14:57;;;;;;;;;;;6.60;99.90;;;;;;4999332;28;19957;-77
2023/01/15 14:17:50;;;;;;;;;;;6.60;99.90;;;;;;4986451;28;19926;-77
2023/01/15 14:20:26;;;;;;;;;;;6.70;99.90;;;;;;4986071;28;19926;-77
2023/01/15 14:23:01;;;;;;;;;;;6.70;99.90;;;;;;4991792;28;19925;-77
2023/01/15 14:25:45;;;;;;;;;;;6.70;99.90;;;;;;5013739;28;19931;-77
2023/01/15 14:28:23;;;;;;;;;;;6.80;99.90;;;;;;4987109;28;19973;-76
2023/01/15 14:31:02;;;;;;;;;;;6.60;99.90;;;;;;4986267;28;19936;-76
2023/01/15 14:33:34;;;;;;;;;;;6.60;99.90;;;;;;4988286;28;19940;-76
2023/01/15 14:36:09;;;;;;;;;;;6.50;99.90;;;;;;5022977;28;20028;-76
2023/01/15 14:38:36;;;;;;;;;;;6.50;99.90;;;;;;4997341;28;19926;-77
2023/01/15 14:41:06;;;;;;;;;;;6.50;99.90;;;;;;4986713;28;20467;-76
2023/01/15 14:43:33;;;;;;;;;;;6.40;99.90;;;;;;4988014;28;19934;-77
2023/01/15 14:46:10;;;;;;;;;;;6.30;99.90;;;;;;4986465;28;20360;-76
2023/01/15 14:48:38;;;;;;;;;;;6.30;99.90;;;;;;4986326;28;19933;-75
2023/01/15 14:51:08;;;;;;;;;;;6.40;99.90;;;;;;4987909;28;19961;-75
2023/01/15 14:53:38;;;;;;;;;;;6.50;99.90;;;;;;4983186;28;19934;-75
2023/01/15 14:56:13;;;;;;;;;;;6.50;99.90;;;;;;4988374;28;19956;-75
2023/01/15 14:58:47;;;;;;;;;;;6.50;99.90;;;;;;4988034;28;19988;-76
2023/01/15 15:01:17;;;;;;;;;;;6.60;99.90;;;;;;4987459;28;19930;-76
2023/01/15 15:03:48;;;;;;;;;;;6.60;99.90;;;;;;4988953;28;19976;-77
2023/01/15 15:06:15;;;;;;;;;;;6.50;99.90;;;;;;5016937;28;19940;-77
2023/01/15 15:08:42;;;;;;;;;;;6.40;99.90;;;;;;4988314;28;19979;-76
2023/01/15 15:12:17;;;;;;;;;;;6.40;99.90;;;;;;4984833;28;20013;-76
2023/01/15 15:14:05;;;;;;;;;;;6.40;99.90;;;;;;4982708;28;20384;-77
2023/01/15 15:16:32;;;;;;;;;;;6.40;99.90;;;;;;4984749;28;19937;-75
2023/01/15 15:19:00;;;;;;;;;;;6.40;99.90;;;;;;4986549;28;20389;-76
2023/01/15 15:21:28;;;;;;;;;;;6.40;99.90;;;;;;4984835;28;19930;-76
2023/01/15 15:23:57;;;;;;;;;;;6.40;99.90;;;;;;4987112;28;19934;-76
2023/01/15 15:26:26;;;;;;;;;;;6.30;99.90;;;;;;4983991;28;20312;-76
2023/01/15 15:28:57;;;;;;;;;;;6.30;99.90;;;;;;4984680;28;20487;-76
2023/01/15 15:31:25;;;;;;;;;;;6.30;99.90;;;;;;4983589;28;20261;-76